Hampton, Florida
Current Conditions -  °F | °C
As of 1:35 PM on Sunday 21 Dec 2014 (Local Time) from K42J Reporting Station
Overcast Overcast  
Wind Chill: 61°   Ceiling: 300
Heat Index: 61°   Visibility: 5mi
Dew Point: 61°   Wind: 6mph
Humidity: 100%   Direction: 70°ENE
Pressure: 30.06"   Gusts: NA
Location:  29.86°N, 82.13°W
Report Text: K42J 211835Z AUTO 07005KT 5SM OVC003 16/16 A3006 RMK AO1 TSNO
Loading
Personal Weather Stations






























Interactive Weather Map New forecast layout! Learn more

10-Day Weather Forecast

Advertisements
Track Severe Weather on mobile